Time;durP1;ratioP1;P1;durP2;ratioP2;P2;SDS_P1;SDS_P2;PMS_P1;PMS_P2;Temp;Humidity;BMP_temperature;BMP_pressure;BME280_temperature;BME280_humidity;BME280_pressure;Samples;Min_cycle;Max_cycle;Signal;HPM_P1;HPM_P2
2021/03/22 00:01:00;;;;;;;21.82;14.78;;;;;;;1.19;65.75;99186.20;1821668;78;20925;-69
2021/03/22 00:03:32;;;;;;;20.05;15.08;;;;;;;1.19;65.73;99184.48;1816571;77;20989;-69
2021/03/22 00:06:01;;;;;;;20.92;14.63;;;;;;;1.18;65.76;99182.80;1821744;78;20981;-70
2021/03/22 00:08:30;;;;;;;20.05;14.80;;;;;;;1.17;65.72;99184.13;1821771;78;22571;-70
2021/03/22 00:10:58;;;;;;;21.35;15.20;;;;;;;1.18;65.75;99185.80;1821726;78;21748;-70
2021/03/22 00:13:28;;;;;;;19.15;14.63;;;;;;;1.20;65.76;99181.47;1821625;78;20938;-70
2021/03/22 00:16:02;;;;;;;23.57;16.05;;;;;;;1.21;65.68;99179.27;1821557;78;20958;-69
2021/03/22 00:18:35;;;;;;;21.97;15.63;;;;;;;1.19;65.76;99180.63;1821740;78;20929;-70
2021/03/22 00:21:04;;;;;;;24.63;15.43;;;;;;;1.19;65.73;99180.63;1821672;78;21186;-70
2021/03/22 00:23:34;;;;;;;23.40;15.28;;;;;;;1.21;65.80;99181.83;1821670;78;21511;-70
2021/03/22 00:26:04;;;;;;;21.93;16.05;;;;;;;1.21;65.80;99183.95;1821640;77;21463;-69
2021/03/22 00:28:38;;;;;;;22.40;16.12;;;;;;;1.21;65.80;99182.67;1821639;78;20910;-69
2021/03/22 00:31:11;;;;;;;20.97;16.57;;;;;;;1.21;65.82;99181.39;1821773;78;21353;-69
2021/03/22 00:33:40;;;;;;;27.87;18.55;;;;;;;1.22;65.75;99175.38;1821709;78;21261;-69
2021/03/22 00:36:08;;;;;;;29.15;18.10;;;;;;;1.21;65.75;99180.11;1812912;78;21436;-68
2021/03/22 00:38:37;;;;;;;27.13;18.95;;;;;;;1.22;65.69;99178.38;1806528;79;20947;-69
2021/03/22 00:41:06;;;;;;;29.87;18.77;;;;;;;1.24;65.66;99179.17;1806480;79;20879;-69
2021/03/22 00:43:36;;;;;;;27.40;18.82;;;;;;;1.25;65.54;99177.00;1806595;79;20946;-69
2021/03/22 00:46:05;;;;;;;25.35;17.00;;;;;;;1.25;65.43;99178.28;1806564;79;20942;-69
2021/03/22 00:48:35;;;;;;;27.02;17.50;;;;;;;1.24;65.41;99176.61;1806431;78;20949;-69
2021/03/22 00:51:07;;;;;;;24.35;16.90;;;;;;;1.23;65.48;99178.33;1806514;79;20919;-72
2021/03/22 00:53:36;;;;;;;23.12;16.23;;;;;;;1.22;65.49;99177.10;1806446;79;20919;-73
2021/03/22 00:56:05;;;;;;;22.40;16.12;;;;;;;1.23;65.49;99177.05;1806531;79;20918;-70
2021/03/22 00:58:33;;;;;;;24.37;16.65;;;;;;;1.23;65.46;99177.05;1806499;79;22158;-71
2021/03/22 01:01:01;;;;;;;26.55;16.57;;;;;;;1.22;65.49;99170.69;1806469;79;20974;-69
2021/03/22 01:03:33;;;;;;;28.60;16.95;;;;;;;1.21;65.56;99171.58;1806499;79;21504;-70
2021/03/22 01:06:03;;;;;;;23.50;16.57;;;;;;;1.21;65.59;99167.29;1806491;79;21005;-69
2021/03/22 01:08:33;;;;;;;23.32;16.87;;;;;;;1.21;65.67;99167.29;1806529;79;21009;-70
2021/03/22 01:11:07;;;;;;;21.27;15.78;;;;;;;1.22;65.68;99163.00;1806518;79;21188;-70
2021/03/22 01:13:43;;;;;;;25.37;17.65;;;;;;;1.20;65.64;99148.94;1806402;79;21408;-70
2021/03/22 01:16:14;;;;;;;24.23;17.48;;;;;;;1.22;65.76;99152.73;1805777;79;20945;-69
2021/03/22 01:18:46;;;;;;;23.92;17.42;;;;;;;1.23;65.77;99148.00;1806489;79;20985;-70
2021/03/22 01:21:35;;;;;;;22.58;16.82;;;;;;;1.22;65.83;99151.02;1806635;79;21361;-68
2021/03/22 01:24:04;;;;;;;22.75;16.93;;;;;;;1.21;65.91;99155.75;1806446;79;21188;-70
2021/03/22 01:26:34;;;;;;;23.80;17.05;;;;;;;1.21;65.94;99157.03;1806453;79;20990;-72
2021/03/22 01:29:19;;;;;;;26.62;17.90;;;;;;;1.22;66.13;99154.86;1806496;79;20871;-71
2021/03/22 01:31:57;;;;;;;21.73;16.97;;;;;;;1.23;66.21;99155.70;1806643;79;20997;-72
2021/03/22 01:34:21;;;;;;;28.17;17.02;;;;;;;1.24;66.22;99154.37;1806181;79;20998;-72
2021/03/22 01:36:50;;;;;;;23.80;17.42;;;;;;;1.24;66.20;99137.70;1818935;78;21199;-72
2021/03/22 01:39:21;;;;;;;30.10;17.50;;;;;;;1.24;66.18;99136.42;1824159;78;20925;-72
2021/03/22 01:42:27;;;;;;;24.80;17.05;;;;;;;1.24;66.22;99135.14;1824436;77;20973;-72
2021/03/22 01:44:59;;;;;;;25.55;18.48;;;;;;;1.25;66.29;99133.41;1823936;78;20958;-72
2021/03/22 01:47:32;;;;;;;27.67;17.42;;;;;;;1.26;66.37;99140.22;1794932;78;21491;-72
2021/03/22 01:50:15;;;;;;;25.45;18.40;;;;;;;1.24;66.37;99127.44;1824422;78;21190;-72
2021/03/22 01:52:44;;;;;;;28.07;18.32;;;;;;;1.24;66.40;99130.01;1824391;78;20918;-72
2021/03/22 01:55:14;;;;;;;26.07;18.15;;;;;;;1.25;66.36;99129.12;1824319;78;20973;-72
2021/03/22 01:57:44;;;;;;;24.87;18.20;;;;;;;1.24;66.29;99130.45;1824385;78;20943;-70
2021/03/22 02:00:28;;;;;;;29.25;19.12;;;;;;;1.22;66.39;99127.94;1824427;78;21029;-69
2021/03/22 02:03:05;;;;;;;25.82;18.55;;;;;;;1.22;66.43;99119.41;1824525;78;22152;-70
2021/03/22 02:05:38;;;;;;;27.93;19.00;;;;;;;1.21;66.40;99118.56;1824464;78;20937;-69
2021/03/22 02:08:14;;;;;;;26.90;19.90;;;;;;;1.22;66.52;99118.13;1795052;78;21482;-70
2021/03/22 02:10:43;;;;;;;29.40;19.75;;;;;;;1.22;66.49;99112.99;1824595;78;21538;-69
2021/03/22 02:13:16;;;;;;;26.97;20.17;;;;;;;1.21;66.54;99121.58;1824456;78;20992;-70
2021/03/22 02:15:46;;;;;;;31.27;20.52;;;;;;;1.20;66.58;99119.45;1824480;78;20910;-69
2021/03/22 02:18:45;;;;;;;32.17;20.60;;;;;;;1.20;66.67;99115.61;1824664;78;20936;-70
2021/03/22 02:21:39;;;;;;;28.05;20.08;;;;;;;1.20;66.67;99110.95;1824709;78;20913;-69
2021/03/22 02:24:46;;;;;;;26.70;18.92;;;;;;;1.21;66.69;99116.45;1824707;78;21016;-72
2021/03/22 02:27:38;;;;;;;29.00;20.55;;;;;;;1.20;66.68;99110.95;1824933;77;20934;-71
2021/03/22 02:30:30;;;;;;;27.25;19.80;;;;;;;1.19;66.73;99116.53;1824490;78;21437;-71
2021/03/22 02:33:29;;;;;;;28.75;20.68;;;;;;;1.17;66.86;99104.64;1824318;78;21004;-73
2021/03/22 02:36:20;;;;;;;29.35;19.90;;;;;;;1.16;66.96;99100.41;1824392;78;20993;-72
2021/03/22 02:38:58;;;;;;;31.10;20.82;;;;;;;1.15;67.09;99100.01;1824338;78;21044;-73
2021/03/22 02:41:49;;;;;;;30.90;21.25;;;;;;;1.14;67.20;99101.73;1824434;78;21532;-73
2021/03/22 02:44:30;;;;;;;32.58;20.75;;;;;;;1.13;67.35;99099.22;1816997;78;21625;-73
2021/03/22 02:47:11;;;;;;;31.12;21.27;;;;;;;1.12;67.47;99101.39;1824435;78;20953;-73
2021/03/22 02:49:40;;;;;;;32.33;21.60;;;;;;;1.10;67.65;99100.60;1823050;78;21008;-69
2021/03/22 02:53:00;;;;;;;31.62;22.48;;;;;;;1.08;67.79;99100.65;1824306;78;21048;-73
2021/03/22 02:56:08;;;;;;;34.35;23.52;;;;;;;1.08;67.93;99090.39;1824353;78;20985;-72
2021/03/22 02:59:01;;;;;;;33.00;22.73;;;;;;;1.10;68.07;99092.91;1824384;78;21197;-73
2021/03/22 03:01:41;;;;;;;30.95;22.30;;;;;;;1.09;68.12;99091.23;1824318;78;21008;-74
2021/03/22 03:04:15;;;;;;;31.57;21.73;;;;;;;1.07;68.24;99086.16;1824342;78;21555;-72
2021/03/22 03:06:56;;;;;;;30.17;21.50;;;;;;;1.04;68.29;99084.97;1824320;78;21000;-72
2021/03/22 03:09:29;;;;;;;33.80;22.73;;;;;;;1.04;68.42;99089.27;1824395;78;20917;-72
2021/03/22 03:12:10;;;;;;;39.88;25.82;;;;;;;1.03;68.48;99088.42;1824394;78;21645;-72
2021/03/22 03:14:39;;;;;;;49.05;28.35;;;;;;;1.04;68.54;99091.38;1823591;78;21064;-71
2021/03/22 03:17:07;;;;;;;42.83;25.52;;;;;;;1.04;68.63;99086.25;1824334;78;20914;-72
2021/03/22 03:19:36;;;;;;;40.08;24.82;;;;;;;1.06;68.58;99090.05;1824307;78;20882;-71
2021/03/22 03:22:05;;;;;;;42.98;26.25;;;;;;;1.07;68.61;99091.28;1824455;78;20965;-69
2021/03/22 03:24:33;;;;;;;32.20;22.73;;;;;;;1.07;68.69;99081.47;1824322;77;21117;-69
2021/03/22 03:27:02;;;;;;;33.67;22.42;;;;;;;1.05;68.73;99084.08;1824216;78;21008;-69
2021/03/22 03:29:30;;;;;;;33.65;23.62;;;;;;;1.07;68.77;99086.59;1824427;78;20984;-69
2021/03/22 03:31:59;;;;;;;33.35;24.07;;;;;;;1.06;68.80;99083.20;1824378;78;21590;-69
2021/03/22 03:34:28;;;;;;;32.53;22.87;;;;;;;1.07;68.86;99086.16;1824366;78;20914;-73
2021/03/22 03:36:56;;;;;;;31.27;21.15;;;;;;;1.06;68.95;99085.77;1816199;78;21189;-73
2021/03/22 03:39:25;;;;;;;30.62;21.33;;;;;;;1.07;68.96;99086.16;1806474;79;20930;-73
2021/03/22 03:41:53;;;;;;;28.90;21.15;;;;;;;1.08;69.00;99094.23;1806560;79;20946;-74
2021/03/22 03:44:21;;;;;;;30.95;21.90;;;;;;;1.08;69.16;99091.67;1806518;79;21025;-74
2021/03/22 03:46:50;;;;;;;29.60;21.87;;;;;;;1.08;69.07;99087.83;1806531;79;20926;-73
2021/03/22 03:49:19;;;;;;;32.30;21.52;;;;;;;1.09;69.10;99086.11;1806517;79;22280;-74
2021/03/22 03:51:48;;;;;;;32.25;22.82;;;;;;;1.10;69.12;99086.05;1806413;79;21476;-72
2021/03/22 03:54:17;;;;;;;36.15;24.40;;;;;;;1.11;69.18;99090.30;1806511;78;20938;-72
2021/03/22 03:56:45;;;;;;;42.53;24.80;;;;;;;1.13;69.27;99088.52;1806503;79;20938;-69
2021/03/22 03:59:15;;;;;;;38.73;26.40;;;;;;;1.14;69.31;99094.48;1806547;79;20997;-72
2021/03/22 04:01:44;;;;;;;39.67;25.17;;;;;;;1.14;69.46;99096.61;1806537;79;22169;-71
2021/03/22 04:04:12;;;;;;;37.10;25.08;;;;;;;1.15;69.56;99090.59;1806493;79;21013;-71
2021/03/22 04:06:41;;;;;;;37.60;24.92;;;;;;;1.16;69.65;99096.11;1806580;79;20994;-72
2021/03/22 04:09:12;;;;;;;34.18;23.70;;;;;;;1.19;69.75;99094.73;1806510;79;21606;-72
2021/03/22 04:11:45;;;;;;;35.03;24.12;;;;;;;1.22;69.78;99100.17;1806578;79;20978;-74
2021/03/22 04:14:26;;;;;;;35.92;25.27;;;;;;;1.23;69.80;99100.13;1806537;79;21189;-74
2021/03/22 04:16:54;;;;;;;35.80;23.38;;;;;;;1.26;69.80;99100.02;1806436;79;20993;-72
2021/03/22 04:19:23;;;;;;;37.50;24.55;;;;;;;1.26;69.90;99103.88;1806566;79;20950;-71
2021/03/22 04:21:52;;;;;;;32.30;23.07;;;;;;;1.27;69.99;99104.70;1806470;79;20946;-71
2021/03/22 04:24:21;;;;;;;33.63;23.20;;;;;;;1.27;70.11;99105.55;1806627;79;20970;-69
2021/03/22 04:26:49;;;;;;;32.13;23.55;;;;;;;1.29;70.23;99108.06;1806517;79;21232;-70
2021/03/22 04:29:17;;;;;;;32.55;22.95;;;;;;;1.28;70.37;99107.67;1806433;79;20935;-69
2021/03/22 04:31:46;;;;;;;33.53;23.95;;;;;;;1.28;70.53;99105.94;1806548;79;20926;-69
2021/03/22 04:34:14;;;;;;;35.08;23.77;;;;;;;1.28;70.61;99103.82;1806517;79;20875;-69
2021/03/22 04:36:44;;;;;;;38.53;25.08;;;;;;;1.27;70.69;99105.55;1806462;78;20926;-71
2021/03/22 04:39:16;;;;;;;35.75;25.37;;;;;;;1.27;70.85;99106.83;1806664;79;22046;-71
2021/03/22 04:41:44;;;;;;;41.53;28.83;;;;;;;1.28;70.89;99102.09;1806434;79;20926;-69
2021/03/22 04:44:12;;;;;;;52.38;31.87;;;;;;;1.31;71.01;99106.28;1806537;79;21512;-69
2021/03/22 04:46:41;;;;;;;45.58;30.43;;;;;;;1.33;71.07;99104.06;1806494;79;20934;-70
2021/03/22 04:49:09;;;;;;;45.88;29.82;;;;;;;1.35;71.14;99105.30;1806519;79;21027;-69
2021/03/22 04:51:38;;;;;;;39.30;25.95;;;;;;;1.38;71.13;99101.34;1806539;79;21366;-72
2021/03/22 04:54:08;;;;;;;38.60;26.10;;;;;;;1.42;71.11;99101.64;1806442;78;21389;-73
2021/03/22 04:56:36;;;;;;;33.25;23.40;;;;;;;1.46;71.17;99095.96;1806501;79;21002;-73
2021/03/22 04:59:05;;;;;;;30.75;22.70;;;;;;;1.50;71.05;99104.78;1807477;79;20942;-73
2021/03/22 05:01:33;;;;;;;37.28;24.47;;;;;;;1.54;71.09;99100.39;1807553;79;21061;-72
2021/03/22 05:04:02;;;;;;;35.52;23.57;;;;;;;1.56;71.01;99106.31;1807517;79;22224;-72
2021/03/22 05:06:31;;;;;;;32.38;22.82;;;;;;;1.61;71.02;99109.52;1807439;78;20978;-72
2021/03/22 05:09:00;;;;;;;33.40;22.32;;;;;;;1.65;71.03;99109.37;1806500;78;20938;-73
2021/03/22 05:11:29;;;;;;;29.23;22.40;;;;;;;1.70;70.91;99113.06;1806469;79;20930;-72
2021/03/22 05:13:59;;;;;;;33.58;22.70;;;;;;;1.75;70.67;99112.91;1806364;79;21048;-71
2021/03/22 05:16:28;;;;;;;33.95;23.90;;;;;;;1.78;70.68;99118.77;1806766;79;22085;-71
2021/03/22 05:18:58;;;;;;;35.00;24.10;;;;;;;1.82;70.57;99115.20;1803555;79;20965;-72
2021/03/22 05:21:26;;;;;;;34.83;24.98;;;;;;;1.86;70.62;99110.36;1806601;79;20922;-69
2021/03/22 05:23:55;;;;;;;40.43;25.80;;;;;;;1.89;70.37;99105.56;1806610;79;20938;-68
2021/03/22 05:26:23;;;;;;;36.40;25.37;;;;;;;1.91;70.26;99114.88;1806700;79;21523;-69
2021/03/22 05:28:51;;;;;;;39.53;24.10;;;;;;;1.94;70.27;99107.52;1806661;79;21026;-68
2021/03/22 05:31:20;;;;;;;30.43;23.20;;;;;;;1.95;69.98;99113.05;1806618;79;21021;-68
2021/03/22 05:33:48;;;;;;;28.30;21.02;;;;;;;1.95;69.86;99108.75;1806602;79;21479;-69
2021/03/22 05:36:17;;;;;;;30.27;21.52;;;;;;;2.00;69.81;99112.41;1806679;79;20934;-69
2021/03/22 05:38:45;;;;;;;30.17;22.45;;;;;;;2.05;69.74;99111.80;1807288;78;20875;-68
2021/03/22 05:41:19;;;;;;;31.35;21.77;;;;;;;2.10;69.71;99107.78;1806618;79;22164;-69
2021/03/22 05:43:59;;;;;;;31.42;22.05;;;;;;;2.15;69.24;99104.61;1806552;79;20938;-70
2021/03/22 05:46:58;;;;;;;28.27;19.30;;;;;;;2.21;69.16;99108.23;1806614;79;21338;-70
2021/03/22 05:49:58;;;;;;;25.57;17.57;;;;;;;2.25;68.53;99111.08;1803289;79;21005;-69
2021/03/22 05:52:57;;;;;;;25.10;17.98;;;;;;;2.26;68.00;99112.31;1793221;78;21053;-68
2021/03/22 05:55:46;;;;;;;26.07;17.15;;;;;;;2.25;67.80;99111.08;1782697;79;21096;-71
2021/03/22 05:58:50;;;;;;;22.87;17.60;;;;;;;2.26;68.11;99111.03;1767260;79;20962;-77
2021/03/22 06:01:47;;;;;;;24.67;16.90;;;;;;;2.29;68.15;99111.36;1720687;81;21022;-70
2021/03/22 06:04:30;;;;;;;24.63;18.02;;;;;;;2.32;68.32;99113.82;1739747;80;21033;-68
2021/03/22 06:07:00;;;;;;;26.17;17.55;;;;;;;2.33;68.23;99119.34;1741561;80;21112;-69
2021/03/22 06:09:52;;;;;;;22.75;17.57;;;;;;;2.34;68.35;99121.02;1781199;79;21637;-70
2021/03/22 06:12:54;;;;;;;24.45;16.45;;;;;;;2.36;68.36;99120.97;1774969;78;21614;-72
2021/03/22 06:15:37;;;;;;;23.02;17.70;;;;;;;2.38;68.50;99123.03;1779230;77;21033;-71
2021/03/22 06:18:13;;;;;;;22.35;17.30;;;;;;;2.38;68.67;99124.32;1794610;78;21033;-70
2021/03/22 06:20:45;;;;;;;27.35;17.77;;;;;;;2.38;68.80;99121.30;1720074;82;21097;-69
2021/03/22 06:23:41;;;;;;;25.77;17.12;;;;;;;2.40;68.82;99124.63;1749580;81;21710;-73
2021/03/22 06:26:24;;;;;;;24.07;16.55;;;;;;;2.44;69.10;99133.05;1730399;80;21747;-72
2021/03/22 06:28:55;;;;;;;22.55;16.73;;;;;;;2.47;69.14;99137.63;1734100;80;22344;-70
2021/03/22 06:31:24;;;;;;;24.02;17.37;;;;;;;2.49;69.21;99131.98;1779351;78;21096;-68
2021/03/22 06:34:06;;;;;;;22.30;15.65;;;;;;;2.52;69.16;99128.02;1771861;79;20997;-69
2021/03/22 06:36:34;;;;;;;20.65;15.80;;;;;;;2.57;69.40;99127.84;1793244;78;22470;-69
2021/03/22 06:39:07;;;;;;;25.70;16.87;;;;;;;2.61;70.05;99128.96;1806302;78;21008;-72
2021/03/22 06:41:48;;;;;;;23.50;18.10;;;;;;;2.67;70.33;99133.03;1802994;77;21035;-70
2021/03/22 06:44:33;;;;;;;22.55;16.85;;;;;;;2.72;70.33;99132.86;1793496;78;21168;-71
2021/03/22 06:47:17;;;;;;;24.47;17.67;;;;;;;2.78;70.08;99123.19;1793268;79;21653;-70
2021/03/22 06:49:53;;;;;;;20.82;15.43;;;;;;;2.82;70.10;99129.02;1787047;79;21710;-70
2021/03/22 06:52:25;;;;;;;22.85;17.57;;;;;;;2.85;70.46;99123.75;1721378;81;21190;-69
2021/03/22 06:54:56;;;;;;;22.37;16.55;;;;;;;2.89;70.62;99126.59;1747335;81;21628;-69
2021/03/22 06:57:29;;;;;;;18.65;15.45;;;;;;;2.94;70.78;99124.23;1742212;79;20948;-75
2021/03/22 07:00:12;;;;;;;19.52;15.13;;;;;;;3.00;70.93;99126.56;1751798;81;20936;-70
2021/03/22 07:02:52;;;;;;;22.02;16.35;;;;;;;3.08;71.12;99132.69;1760303;81;21834;-73
2021/03/22 07:05:38;;;;;;;21.27;16.15;;;;;;;3.14;71.07;99131.61;1741068;81;21581;-71
2021/03/22 07:08:17;;;;;;;28.30;16.95;;;;;;;3.20;70.96;99128.80;1716329;82;21203;-69
2021/03/22 07:11:06;;;;;;;23.02;16.40;;;;;;;3.29;71.14;99129.69;1737552;81;21004;-69
2021/03/22 07:13:36;;;;;;;20.45;14.83;;;;;;;3.37;71.30;99130.21;1771723;79;21552;-70
2021/03/22 07:16:17;;;;;;;21.93;16.05;;;;;;;3.46;71.25;99127.72;1757926;79;21392;-70
2021/03/22 07:19:21;;;;;;;19.15;14.43;;;;;;;3.53;70.60;99127.84;1756644;81;21009;-72
2021/03/22 07:21:55;;;;;;;18.57;14.33;;;;;;;3.59;70.60;99138.73;1759533;79;21036;-70
2021/03/22 07:24:44;;;;;;;22.62;16.90;;;;;;;3.75;71.41;99127.76;1747757;79;21166;-70
2021/03/22 07:27:24;;;;;;;23.10;16.37;;;;;;;3.95;72.12;99134.19;1737879;81;21087;-71
2021/03/22 07:30:27;;;;;;;18.27;14.87;;;;;;;4.17;71.25;99130.20;1797630;79;21204;-71
2021/03/22 07:33:31;;;;;;;19.55;15.03;;;;;;;4.37;70.62;99142.20;1782270;79;21070;-70
2021/03/22 07:36:17;;;;;;;18.85;15.13;;;;;;;4.55;70.74;99143.93;1783188;79;21624;-70
2021/03/22 07:39:17;;;;;;;17.30;14.58;;;;;;;4.63;69.79;99145.70;1814100;77;21633;-69
2021/03/22 07:42:14;;;;;;;18.27;14.43;;;;;;;4.64;68.42;99146.92;1788911;79;20942;-70
2021/03/22 07:45:02;;;;;;;21.15;15.60;;;;;;;4.60;68.44;99147.97;1773969;79;21566;-68
2021/03/22 07:47:46;;;;;;;20.43;16.00;;;;;;;4.59;68.32;99146.30;1779201;78;21017;-72
2021/03/22 07:50:47;;;;;;;19.37;15.53;;;;;;;4.56;68.50;99146.44;1736101;81;21103;-72
2021/03/22 07:53:59;;;;;;;19.50;14.47;;;;;;;4.59;68.55;99148.88;1778233;79;21048;-76
2021/03/22 07:56:48;;;;;;;20.50;15.48;;;;;;;4.66;69.16;99149.44;1693345;82;21081;-74
2021/03/22 07:59:24;;;;;;;17.00;14.50;;;;;;;4.79;68.81;99143.27;1773718;79;21419;-70
2021/03/22 08:02:36;;;;;;;20.40;15.03;;;;;;;4.90;69.57;99150.02;1776179;79;21049;-72
2021/03/22 08:05:32;;;;;;;20.90;15.20;;;;;;;5.00;68.91;99147.39;1686059;82;21595;-76
2021/03/22 08:08:15;;;;;;;21.17;15.00;;;;;;;5.04;68.63;99151.50;1746239;82;20997;-70
2021/03/22 08:10:49;;;;;;;19.10;14.28;;;;;;;5.02;68.02;99154.16;1779830;79;20950;-72
2021/03/22 08:13:38;;;;;;;19.27;14.70;;;;;;;4.95;67.49;99149.36;1715844;82;22284;-70
2021/03/22 08:16:40;;;;;;;16.48;13.38;;;;;;;4.85;67.50;99153.27;1702024;82;21543;-70
2021/03/22 08:19:52;;;;;;;16.37;13.98;;;;;;;4.74;67.52;99152.95;1732421;80;21057;-71
2021/03/22 08:22:38;;;;;;;18.90;15.48;;;;;;;4.61;67.96;99154.80;1792742;79;21579;-70
2021/03/22 08:25:35;;;;;;;18.12;13.43;;;;;;;4.53;68.20;99154.31;1783895;79;20970;-69
2021/03/22 08:28:37;;;;;;;20.92;15.53;;;;;;;4.47;68.79;99158.45;1799136;79;21412;-73
2021/03/22 08:31:41;;;;;;;20.43;16.42;;;;;;;4.42;69.00;99153.95;1745380;80;21651;-71
2021/03/22 08:34:39;;;;;;;20.15;15.50;;;;;;;4.40;70.07;99158.82;1722268;82;21056;-71
2021/03/22 08:37:22;;;;;;;19.70;15.85;;;;;;;4.48;71.31;99151.55;1787906;79;21575;-73
2021/03/22 08:40:07;;;;;;;19.23;16.00;;;;;;;4.64;71.72;99149.96;1803015;77;21108;-75
2021/03/22 08:42:59;;;;;;;18.05;14.33;;;;;;;4.78;71.36;99142.88;1762477;81;22092;-73
2021/03/22 08:45:37;;;;;;;17.40;14.47;;;;;;;4.90;71.42;99143.58;1760239;80;21087;-72
2021/03/22 08:48:22;;;;;;;19.45;15.13;;;;;;;4.94;69.73;99140.78;1801502;77;21000;-71
2021/03/22 08:50:51;;;;;;;16.48;14.50;;;;;;;4.92;68.88;99142.59;1811611;77;21751;-69
2021/03/22 08:53:22;;;;;;;15.72;13.88;;;;;;;4.90;69.10;99143.58;1813320;78;21009;-69
2021/03/22 08:55:56;;;;;;;18.15;14.83;;;;;;;4.89;69.52;99139.32;1813276;78;21243;-69
2021/03/22 08:58:40;;;;;;;18.98;14.45;;;;;;;4.88;68.52;99141.06;1807484;78;21091;-73
2021/03/22 09:01:26;;;;;;;21.07;15.15;;;;;;;4.89;68.72;99147.06;1798970;78;21073;-69
2021/03/22 09:04:18;;;;;;;20.57;15.93;;;;;;;4.89;68.64;99149.64;1817757;78;21053;-69
2021/03/22 09:07:13;;;;;;;19.52;15.45;;;;;;;4.94;68.81;99151.55;1771421;78;21448;-70
2021/03/22 09:09:45;;;;;;;21.30;15.48;;;;;;;4.94;68.89;99148.97;1818172;77;21048;-70
2021/03/22 09:12:43;;;;;;;20.55;16.37;;;;;;;4.97;68.44;99148.83;1717655;81;21045;-72
2021/03/22 09:15:35;;;;;;;22.20;15.53;;;;;;;4.97;68.87;99141.92;1718138;81;21075;-72
2021/03/22 09:18:09;;;;;;;20.65;16.05;;;;;;;5.00;68.35;99152.10;1804198;78;21040;-74
2021/03/22 09:20:56;;;;;;;18.80;15.15;;;;;;;5.01;68.15;99149.07;1771113;78;21060;-73
2021/03/22 09:23:41;;;;;;;19.00;15.05;;;;;;;5.02;68.68;99152.87;1793187;78;21337;-74
2021/03/22 09:26:58;;;;;;;21.10;15.03;;;;;;;5.01;68.41;99145.20;1812451;78;22213;-73
2021/03/22 09:29:41;;;;;;;17.07;13.93;;;;;;;5.04;68.23;99147.63;1765187;80;21052;-71
2021/03/22 09:32:40;;;;;;;15.85;13.10;;;;;;;5.08;68.25;99153.03;1813924;78;21128;-73
2021/03/22 09:36:06;;;;;;;18.57;14.07;;;;;;;5.09;67.96;99154.70;1808166;78;21724;-72
2021/03/22 09:38:44;;;;;;;20.45;15.68;;;;;;;5.13;68.02;99156.69;1807257;78;21362;-72
2021/03/22 09:41:15;;;;;;;21.77;15.25;;;;;;;5.15;67.50;99157.00;1794212;78;21017;-71
2021/03/22 09:43:50;;;;;;;15.88;13.72;;;;;;;5.18;67.86;99162.47;1794054;78;20982;-72
2021/03/22 09:46:34;;;;;;;;;;;;;;;5.23;67.24;99161.77;1790069;80;20989;-70
2021/03/22 09:49:23;;;;;;;19.82;13.95;;;;;;;5.29;66.71;99159.72;1813483;77;20108;-74
2021/03/22 09:52:26;;;;;;;17.57;13.50;;;;;;;5.37;66.74;99160.65;1778779;79;20933;-74
2021/03/22 09:54:56;;;;;;;19.10;13.80;;;;;;;5.51;66.08;99161.27;1792783;78;21044;-75
2021/03/22 09:57:45;;;;;;;18.40;15.05;;;;;;;5.61;65.57;99164.59;1812733;78;21551;-71
2021/03/22 10:01:03;;;;;;;18.85;14.23;;;;;;;5.64;64.71;99157.15;1802401;78;21025;-73
2021/03/22 10:03:53;;;;;;;19.70;15.32;;;;;;;5.65;64.11;99162.69;1770440;78;21032;-71
2021/03/22 10:06:46;;;;;;;22.02;15.53;;;;;;;5.66;63.63;99160.48;1785437;77;21383;-71
2021/03/22 10:09:25;;;;;;;19.87;15.38;;;;;;;5.63;63.36;99161.93;1807335;78;21262;-75
2021/03/22 10:11:55;;;;;;;19.20;14.47;;;;;;;5.59;63.25;99164.31;1814997;78;21032;-70
2021/03/22 10:14:34;;;;;;;20.62;15.25;;;;;;;5.60;63.28;99164.66;1803195;77;21139;-72
2021/03/22 10:17:03;;;;;;;19.67;14.80;;;;;;;5.68;63.14;99161.25;1822354;77;21021;-69
2021/03/22 10:19:36;;;;;;;20.12;16.93;;;;;;;5.78;63.03;99166.80;1796664;78;22320;-70
2021/03/22 10:22:15;;;;;;;20.92;15.55;;;;;;;5.85;63.27;99163.83;1803169;78;21589;-71
2021/03/22 10:25:02;;;;;;;18.50;14.60;;;;;;;5.91;63.06;99167.89;1795340;77;20973;-78
2021/03/22 10:27:34;;;;;;;15.45;12.70;;;;;;;5.95;62.44;99171.98;1795367;78;21628;-72
2021/03/22 10:30:22;;;;;;;15.90;13.35;;;;;;;5.94;61.91;99170.32;1798059;78;21060;-69
2021/03/22 10:32:59;;;;;;;16.80;13.93;;;;;;;5.91;61.40;99171.31;1801968;77;21362;-72
2021/03/22 10:35:50;;;;;;;18.17;13.32;;;;;;;5.89;61.57;99161.96;1806741;77;21661;-72
2021/03/22 10:38:29;;;;;;;16.12;13.08;;;;;;;5.84;61.44;99162.16;1813811;77;21032;-72
2021/03/22 10:41:01;;;;;;;16.45;13.35;;;;;;;5.78;60.85;99164.21;1807847;78;21219;-68
2021/03/22 10:43:39;;;;;;;15.80;13.18;;;;;;;5.72;60.87;99164.06;1802799;78;21071;-73
2021/03/22 10:46:25;;;;;;;15.10;13.03;;;;;;;5.63;61.09;99165.80;1784768;78;21373;-73
2021/03/22 10:49:16;;;;;;;14.35;11.95;;;;;;;5.57;61.42;99157.94;1798726;77;21179;-72
2021/03/22 10:51:49;;;;;;;14.78;12.45;;;;;;;5.55;61.70;99153.76;1799531;77;21103;-77
2021/03/22 10:54:22;;;;;;;13.38;11.93;;;;;;;5.52;61.32;99152.62;1809703;77;21447;-73
2021/03/22 10:56:56;;;;;;;13.65;12.07;;;;;;;5.45;61.17;99157.24;1808846;77;20976;-70
2021/03/22 10:59:43;;;;;;;16.30;13.20;;;;;;;5.38;61.67;99157.16;1803512;77;21372;-73
2021/03/22 11:02:42;;;;;;;13.38;11.88;;;;;;;5.31;61.63;99159.20;1802543;78;21025;-68
2021/03/22 11:05:19;;;;;;;14.33;12.68;;;;;;;5.24;61.62;99163.44;1789678;78;21048;-68
2021/03/22 11:07:59;;;;;;;15.65;12.93;;;;;;;5.19;61.96;99165.43;1771240;78;21318;-70
2021/03/22 11:10:28;;;;;;;17.00;13.55;;;;;;;5.15;62.21;99163.45;1797256;77;21650;-70
2021/03/22 11:12:58;;;;;;;15.35;11.83;;;;;;;5.09;61.91;99159.03;1807028;78;21367;-69
2021/03/22 11:15:33;;;;;;;14.50;12.33;;;;;;;5.03;61.99;99164.02;1798635;78;21091;-68
2021/03/22 11:18:06;;;;;;;14.85;12.70;;;;;;;4.96;62.27;99160.89;1813325;78;21607;-72
2021/03/22 11:20:45;;;;;;;14.63;12.03;;;;;;;4.88;62.37;99171.19;1820301;78;21322;-70
2021/03/22 11:23:43;;;;;;;15.63;12.55;;;;;;;4.81;62.73;99163.34;1823153;78;26932;-71
2021/03/22 11:26:26;;;;;;;14.68;12.45;;;;;;;4.76;63.02;99161.01;1791091;80;20961;-71
2021/03/22 11:29:18;;;;;;;15.00;13.38;;;;;;;4.74;63.38;99165.39;1796589;78;21021;-72
2021/03/22 11:31:49;;;;;;;17.15;12.85;;;;;;;4.73;63.63;99166.30;1803792;78;21555;-70
2021/03/22 11:34:34;;;;;;;17.15;14.03;;;;;;;4.65;63.65;99162.78;1799510;78;21060;-68
2021/03/22 11:37:08;;;;;;;18.92;14.33;;;;;;;4.61;63.90;99169.44;1803665;78;27147;-70
2021/03/22 11:39:38;;;;;;;14.58;12.93;;;;;;;4.56;63.79;99169.64;1791930;78;21335;-70
2021/03/22 11:42:34;;;;;;;18.07;15.38;;;;;;;4.55;63.98;99171.00;1721733;81;21078;-71
2021/03/22 11:45:39;;;;;;;15.53;13.93;;;;;;;4.53;64.32;99168.48;1781551;78;21551;-69
2021/03/22 11:48:25;;;;;;;18.07;14.70;;;;;;;4.50;64.66;99171.66;1794330;79;21749;-70
2021/03/22 11:51:01;;;;;;;19.57;14.65;;;;;;;4.48;65.19;99178.17;1788421;78;21351;-68
2021/03/22 11:53:30;;;;;;;17.50;15.60;;;;;;;4.47;65.47;99176.50;1788022;78;22238;-71
2021/03/22 11:56:24;;;;;;;17.55;14.93;;;;;;;4.47;65.73;99175.66;1778431;79;21072;-71
2021/03/22 11:58:50;;;;;;;16.30;14.07;;;;;;;4.49;66.35;99182.42;1781589;79;21060;-71
2021/03/22 12:01:28;;;;;;;18.75;16.27;;;;;;;4.51;66.75;99181.06;1777961;78;21013;-70
2021/03/22 12:04:09;;;;;;;17.57;14.78;;;;;;;4.57;66.19;99186.78;1781996;79;20981;-71
2021/03/22 12:06:59;;;;;;;20.48;17.15;;;;;;;4.65;66.36;99178.25;1796902;79;21053;-75
2021/03/22 12:09:29;;;;;;;21.40;15.68;;;;;;;4.69;66.68;99187.98;1799332;79;21367;-73
2021/03/22 12:12:00;;;;;;;15.40;13.48;;;;;;;4.68;67.08;99182.44;1781149;78;20997;-73
2021/03/22 12:14:29;;;;;;;17.50;14.13;;;;;;;4.77;66.57;99193.63;1778514;79;21061;-69
2021/03/22 12:17:04;;;;;;;14.40;12.33;;;;;;;4.88;66.12;99184.08;1785644;79;20998;-69
2021/03/22 12:19:38;;;;;;;14.30;12.53;;;;;;;4.98;65.43;99174.55;1799027;79;21407;-70
2021/03/22 12:22:10;;;;;;;13.75;11.60;;;;;;;5.11;64.95;99172.24;1725543;81;21702;-69